sensor_id;sensor_type;location;lat;lon;timestamp;temperature;humidity
18797;DHT22;9526;52.612;13.300;2023-02-18T00:02:20;7.30;99.90
18797;DHT22;9526;52.612;13.300;2023-02-18T00:04:45;7.30;99.90
18797;DHT22;9526;52.612;13.300;2023-02-18T00:07:09;7.30;99.90
18797;DHT22;9526;52.612;13.300;2023-02-18T00:09:33;7.30;99.90
18797;DHT22;9526;52.612;13.300;2023-02-18T00:11:56;7.30;99.90
18797;DHT22;9526;52.612;13.300;2023-02-18T00:14:20;7.30;99.90
18797;DHT22;9526;52.612;13.300;2023-02-18T00:16:44;7.20;99.90
18797;DHT22;9526;52.612;13.300;2023-02-18T00:19:11;7.20;99.90
18797;DHT22;9526;52.612;13.300;2023-02-18T00:21:38;7.20;99.90
18797;DHT22;9526;52.612;13.300;2023-02-18T00:24:02;7.20;99.90
18797;DHT22;9526;52.612;13.300;2023-02-18T00:26:26;7.10;99.90
18797;DHT22;9526;52.612;13.300;2023-02-18T00:28:50;7.10;99.90
18797;DHT22;9526;52.612;13.300;2023-02-18T00:31:18;7.10;99.90
18797;DHT22;9526;52.612;13.300;2023-02-18T00:33:44;7.10;99.90
18797;DHT22;9526;52.612;13.300;2023-02-18T00:36:11;7.00;99.90
18797;DHT22;9526;52.612;13.300;2023-02-18T00:38:37;7.00;99.90
18797;DHT22;9526;52.612;13.300;2023-02-18T00:41:01;6.90;99.90
18797;DHT22;9526;52.612;13.300;2023-02-18T00:43:26;6.90;99.90
18797;DHT22;9526;52.612;13.300;2023-02-18T00:45:50;6.90;99.90
18797;DHT22;9526;52.612;13.300;2023-02-18T00:48:14;6.90;99.90
18797;DHT22;9526;52.612;13.300;2023-02-18T00:50:37;6.80;99.90
18797;DHT22;9526;52.612;13.300;2023-02-18T00:53:01;6.80;99.90
18797;DHT22;9526;52.612;13.300;2023-02-18T00:55:26;6.80;99.90
18797;DHT22;9526;52.612;13.300;2023-02-18T00:57:50;6.80;99.90
18797;DHT22;9526;52.612;13.300;2023-02-18T01:00:14;6.80;99.90
18797;DHT22;9526;52.612;13.300;2023-02-18T01:02:38;6.80;99.90
18797;DHT22;9526;52.612;13.300;2023-02-18T01:05:02;6.80;99.90
18797;DHT22;9526;52.612;13.300;2023-02-18T01:07:26;6.70;99.90
18797;DHT22;9526;52.612;13.300;2023-02-18T01:09:49;6.70;99.90
18797;DHT22;9526;52.612;13.300;2023-02-18T01:12:15;6.70;99.90
18797;DHT22;9526;52.612;13.300;2023-02-18T01:14:39;6.70;99.90
18797;DHT22;9526;52.612;13.300;2023-02-18T01:17:02;6.70;99.90
18797;DHT22;9526;52.612;13.300;2023-02-18T01:19:26;6.60;99.90
18797;DHT22;9526;52.612;13.300;2023-02-18T01:21:50;6.60;99.90
18797;DHT22;9526;52.612;13.300;2023-02-18T01:24:13;6.60;99.90
18797;DHT22;9526;52.612;13.300;2023-02-18T01:26:37;6.60;99.90
18797;DHT22;9526;52.612;13.300;2023-02-18T01:29:03;6.60;99.90
18797;DHT22;9526;52.612;13.300;2023-02-18T01:31:27;6.60;99.90
18797;DHT22;9526;52.612;13.300;2023-02-18T01:33:53;6.60;99.90
18797;DHT22;9526;52.612;13.300;2023-02-18T01:36:16;6.60;99.90
18797;DHT22;9526;52.612;13.300;2023-02-18T01:38:40;6.50;99.90
18797;DHT22;9526;52.612;13.300;2023-02-18T01:41:05;6.50;99.90
18797;DHT22;9526;52.612;13.300;2023-02-18T01:43:29;6.50;99.90
18797;DHT22;9526;52.612;13.300;2023-02-18T01:46:16;6.50;99.90
18797;DHT22;9526;52.612;13.300;2023-02-18T01:48:43;6.50;99.90
18797;DHT22;9526;52.612;13.300;2023-02-18T01:51:13;6.50;99.90
18797;DHT22;9526;52.612;13.300;2023-02-18T01:53:47;6.50;99.90
18797;DHT22;9526;52.612;13.300;2023-02-18T01:56:17;6.50;99.90
18797;DHT22;9526;52.612;13.300;2023-02-18T01:58:45;6.50;99.90
18797;DHT22;9526;52.612;13.300;2023-02-18T02:01:10;6.50;99.90
18797;DHT22;9526;52.612;13.300;2023-02-18T02:03:36;6.50;99.90
18797;DHT22;9526;52.612;13.300;2023-02-18T02:06:00;6.50;99.90
18797;DHT22;9526;52.612;13.300;2023-02-18T02:08:24;6.50;99.90
18797;DHT22;9526;52.612;13.300;2023-02-18T02:11:01;6.50;99.90
18797;DHT22;9526;52.612;13.300;2023-02-18T02:13:43;6.40;99.90
18797;DHT22;9526;52.612;13.300;2023-02-18T02:16:20;6.50;99.90
18797;DHT22;9526;52.612;13.300;2023-02-18T02:18:59;6.50;99.90
18797;DHT22;9526;52.612;13.300;2023-02-18T02:21:56;6.50;99.90
18797;DHT22;9526;52.612;13.300;2023-02-18T02:24:53;6.50;99.90
18797;DHT22;9526;52.612;13.300;2023-02-18T02:27:53;6.50;99.90
18797;DHT22;9526;52.612;13.300;2023-02-18T02:31:02;6.50;99.90
18797;DHT22;9526;52.612;13.300;2023-02-18T02:34:15;6.50;99.90
18797;DHT22;9526;52.612;13.300;2023-02-18T02:36:54;6.40;99.90
18797;DHT22;9526;52.612;13.300;2023-02-18T02:39:28;6.40;99.90
18797;DHT22;9526;52.612;13.300;2023-02-18T02:42:03;6.40;99.90
18797;DHT22;9526;52.612;13.300;2023-02-18T02:44:38;6.40;99.90
18797;DHT22;9526;52.612;13.300;2023-02-18T02:47:13;6.40;99.90
18797;DHT22;9526;52.612;13.300;2023-02-18T02:49:47;6.40;99.90
18797;DHT22;9526;52.612;13.300;2023-02-18T02:52:19;6.40;99.90
18797;DHT22;9526;52.612;13.300;2023-02-18T02:54:46;6.30;99.90
18797;DHT22;9526;52.612;13.300;2023-02-18T02:57:42;6.40;99.90
18797;DHT22;9526;52.612;13.300;2023-02-18T03:00:16;6.30;99.90
18797;DHT22;9526;52.612;13.300;2023-02-18T03:02:57;6.30;99.90
18797;DHT22;9526;52.612;13.300;2023-02-18T03:05:38;6.30;99.90
18797;DHT22;9526;52.612;13.300;2023-02-18T03:08:28;6.30;99.90
18797;DHT22;9526;52.612;13.300;2023-02-18T03:11:04;6.30;99.90
18797;DHT22;9526;52.612;13.300;2023-02-18T03:13:46;6.30;99.90
18797;DHT22;9526;52.612;13.300;2023-02-18T03:16:26;6.30;99.90
18797;DHT22;9526;52.612;13.300;2023-02-18T03:19:01;6.20;99.90
18797;DHT22;9526;52.612;13.300;2023-02-18T03:21:32;6.20;99.90
18797;DHT22;9526;52.612;13.300;2023-02-18T03:24:02;6.20;99.90
18797;DHT22;9526;52.612;13.300;2023-02-18T03:26:31;6.20;99.90
18797;DHT22;9526;52.612;13.300;2023-02-18T03:29:00;6.20;99.90
18797;DHT22;9526;52.612;13.300;2023-02-18T03:31:27;6.20;99.90
18797;DHT22;9526;52.612;13.300;2023-02-18T03:33:55;6.20;99.90
18797;DHT22;9526;52.612;13.300;2023-02-18T03:36:22;6.20;99.90
18797;DHT22;9526;52.612;13.300;2023-02-18T03:38:53;6.20;99.90
18797;DHT22;9526;52.612;13.300;2023-02-18T03:41:19;6.30;99.90
18797;DHT22;9526;52.612;13.300;2023-02-18T03:43:48;6.30;99.90
18797;DHT22;9526;52.612;13.300;2023-02-18T03:46:13;6.30;99.90
18797;DHT22;9526;52.612;13.300;2023-02-18T03:48:38;6.30;99.90
18797;DHT22;9526;52.612;13.300;2023-02-18T03:51:01;6.30;99.90
18797;DHT22;9526;52.612;13.300;2023-02-18T03:53:25;6.30;99.90
18797;DHT22;9526;52.612;13.300;2023-02-18T03:55:50;6.30;99.90
18797;DHT22;9526;52.612;13.300;2023-02-18T03:58:14;6.30;99.90
18797;DHT22;9526;52.612;13.300;2023-02-18T04:00:37;6.30;99.90
18797;DHT22;9526;52.612;13.300;2023-02-18T04:03:01;6.30;99.90
18797;DHT22;9526;52.612;13.300;2023-02-18T04:05:25;6.20;99.90
18797;DHT22;9526;52.612;13.300;2023-02-18T04:07:49;6.30;99.90
18797;DHT22;9526;52.612;13.300;2023-02-18T04:10:13;6.20;99.90
18797;DHT22;9526;52.612;13.300;2023-02-18T04:12:38;6.20;99.90
18797;DHT22;9526;52.612;13.300;2023-02-18T04:15:02;6.20;99.90
18797;DHT22;9526;52.612;13.300;2023-02-18T04:17:25;6.20;99.90
18797;DHT22;9526;52.612;13.300;2023-02-18T04:19:49;6.20;99.90
18797;DHT22;9526;52.612;13.300;2023-02-18T04:22:13;6.20;99.90
18797;DHT22;9526;52.612;13.300;2023-02-18T04:24:36;6.20;99.90
18797;DHT22;9526;52.612;13.300;2023-02-18T04:27:00;6.20;99.90
18797;DHT22;9526;52.612;13.300;2023-02-18T04:29:25;6.20;99.90
18797;DHT22;9526;52.612;13.300;2023-02-18T04:31:49;6.20;99.90
18797;DHT22;9526;52.612;13.300;2023-02-18T04:34:13;6.20;99.90
18797;DHT22;9526;52.612;13.300;2023-02-18T04:36:36;6.20;99.90
18797;DHT22;9526;52.612;13.300;2023-02-18T04:39:00;6.10;99.90
18797;DHT22;9526;52.612;13.300;2023-02-18T04:41:24;6.10;99.90
18797;DHT22;9526;52.612;13.300;2023-02-18T04:43:47;6.10;99.90
18797;DHT22;9526;52.612;13.300;2023-02-18T04:46:13;6.10;99.90
18797;DHT22;9526;52.612;13.300;2023-02-18T04:48:36;6.10;99.90
18797;DHT22;9526;52.612;13.300;2023-02-18T04:51:00;6.10;99.90
18797;DHT22;9526;52.612;13.300;2023-02-18T04:53:24;6.10;99.90
18797;DHT22;9526;52.612;13.300;2023-02-18T04:55:49;6.00;99.90
18797;DHT22;9526;52.612;13.300;2023-02-18T04:58:12;6.00;99.90
18797;DHT22;9526;52.612;13.300;2023-02-18T05:00:36;6.10;99.90
18797;DHT22;9526;52.612;13.300;2023-02-18T05:03:01;6.10;99.90
18797;DHT22;9526;52.612;13.300;2023-02-18T05:05:25;6.10;99.90
18797;DHT22;9526;52.612;13.300;2023-02-18T05:07:49;6.00;99.90
18797;DHT22;9526;52.612;13.300;2023-02-18T05:10:16;6.00;99.90
18797;DHT22;9526;52.612;13.300;2023-02-18T05:12:40;6.00;99.90
18797;DHT22;9526;52.612;13.300;2023-02-18T05:15:04;6.00;99.90
18797;DHT22;9526;52.612;13.300;2023-02-18T05:17:28;6.00;99.90
18797;DHT22;9526;52.612;13.300;2023-02-18T05:19:53;6.00;99.90
18797;DHT22;9526;52.612;13.300;2023-02-18T05:22:17;6.00;99.90
18797;DHT22;9526;52.612;13.300;2023-02-18T05:24:41;6.10;99.90
18797;DHT22;9526;52.612;13.300;2023-02-18T05:27:04;6.10;99.90
18797;DHT22;9526;52.612;13.300;2023-02-18T05:29:28;6.10;99.90
18797;DHT22;9526;52.612;13.300;2023-02-18T05:31:51;6.10;99.90
18797;DHT22;9526;52.612;13.300;2023-02-18T05:34:15;6.20;99.90
18797;DHT22;9526;52.612;13.300;2023-02-18T05:36:40;6.20;99.90
18797;DHT22;9526;52.612;13.300;2023-02-18T05:39:04;6.20;99.90
18797;DHT22;9526;52.612;13.300;2023-02-18T05:41:28;6.30;99.90
18797;DHT22;9526;52.612;13.300;2023-02-18T05:43:51;6.30;99.90
18797;DHT22;9526;52.612;13.300;2023-02-18T05:46:32;6.30;99.90
18797;DHT22;9526;52.612;13.300;2023-02-18T05:48:56;6.40;99.90
18797;DHT22;9526;52.612;13.300;2023-02-18T05:51:20;6.40;99.90
18797;DHT22;9526;52.612;13.300;2023-02-18T05:53:45;6.50;99.90
18797;DHT22;9526;52.612;13.300;2023-02-18T05:56:09;6.50;99.90
18797;DHT22;9526;52.612;13.300;2023-02-18T05:58:32;6.50;99.90
18797;DHT22;9526;52.612;13.300;2023-02-18T06:00:56;6.50;99.90
18797;DHT22;9526;52.612;13.300;2023-02-18T06:03:20;6.50;99.90
18797;DHT22;9526;52.612;13.300;2023-02-18T06:05:43;6.60;99.90
18797;DHT22;9526;52.612;13.300;2023-02-18T06:08:08;6.60;99.90
18797;DHT22;9526;52.612;13.300;2023-02-18T06:10:33;6.60;99.90
18797;DHT22;9526;52.612;13.300;2023-02-18T06:12:57;6.60;99.90
18797;DHT22;9526;52.612;13.300;2023-02-18T06:15:23;6.70;99.90
18797;DHT22;9526;52.612;13.300;2023-02-18T06:17:46;6.70;99.90
18797;DHT22;9526;52.612;13.300;2023-02-18T06:20:11;6.70;99.90
18797;DHT22;9526;52.612;13.300;2023-02-18T06:22:35;6.70;99.90
18797;DHT22;9526;52.612;13.300;2023-02-18T06:24:58;6.70;99.90
18797;DHT22;9526;52.612;13.300;2023-02-18T06:27:23;6.70;99.90
18797;DHT22;9526;52.612;13.300;2023-02-18T06:29:47;6.80;99.90
18797;DHT22;9526;52.612;13.300;2023-02-18T06:32:11;6.80;99.90
18797;DHT22;9526;52.612;13.300;2023-02-18T06:34:35;6.80;99.90
18797;DHT22;9526;52.612;13.300;2023-02-18T06:36:58;6.90;99.90
18797;DHT22;9526;52.612;13.300;2023-02-18T06:39:22;6.80;99.90
18797;DHT22;9526;52.612;13.300;2023-02-18T06:41:46;6.90;99.90
18797;DHT22;9526;52.612;13.300;2023-02-18T06:44:11;6.90;99.90
18797;DHT22;9526;52.612;13.300;2023-02-18T06:46:36;6.90;99.90
18797;DHT22;9526;52.612;13.300;2023-02-18T06:49:00;6.90;99.90
18797;DHT22;9526;52.612;13.300;2023-02-18T06:51:24;6.90;99.90
18797;DHT22;9526;52.612;13.300;2023-02-18T06:53:47;7.00;99.90
18797;DHT22;9526;52.612;13.300;2023-02-18T06:56:11;7.00;99.90
18797;DHT22;9526;52.612;13.300;2023-02-18T06:58:35;7.00;99.90
18797;DHT22;9526;52.612;13.300;2023-02-18T07:01:00;7.00;99.90
18797;DHT22;9526;52.612;13.300;2023-02-18T07:03:24;7.10;99.90
18797;DHT22;9526;52.612;13.300;2023-02-18T07:05:48;7.10;99.90
18797;DHT22;9526;52.612;13.300;2023-02-18T07:08:12;7.10;99.90
18797;DHT22;9526;52.612;13.300;2023-02-18T07:10:35;7.10;99.90
18797;DHT22;9526;52.612;13.300;2023-02-18T07:12:59;7.10;99.90
18797;DHT22;9526;52.612;13.300;2023-02-18T07:15:23;7.10;99.90
18797;DHT22;9526;52.612;13.300;2023-02-18T07:17:50;7.20;99.90
18797;DHT22;9526;52.612;13.300;2023-02-18T07:20:14;7.20;99.90
18797;DHT22;9526;52.612;13.300;2023-02-18T07:22:37;7.20;99.90
18797;DHT22;9526;52.612;13.300;2023-02-18T07:25:01;7.20;99.90
18797;DHT22;9526;52.612;13.300;2023-02-18T07:27:25;7.20;99.90
18797;DHT22;9526;52.612;13.300;2023-02-18T07:29:49;7.30;99.90
18797;DHT22;9526;52.612;13.300;2023-02-18T07:32:13;7.30;99.90
18797;DHT22;9526;52.612;13.300;2023-02-18T07:34:39;7.30;99.90
18797;DHT22;9526;52.612;13.300;2023-02-18T07:37:03;7.30;99.90
18797;DHT22;9526;52.612;13.300;2023-02-18T07:39:30;7.40;99.90
18797;DHT22;9526;52.612;13.300;2023-02-18T07:41:54;7.40;99.90
18797;DHT22;9526;52.612;13.300;2023-02-18T07:44:18;7.50;99.90
18797;DHT22;9526;52.612;13.300;2023-02-18T07:46:42;7.50;99.90
18797;DHT22;9526;52.612;13.300;2023-02-18T07:49:08;7.50;99.90
18797;DHT22;9526;52.612;13.300;2023-02-18T07:51:34;7.50;99.90
18797;DHT22;9526;52.612;13.300;2023-02-18T07:53:59;7.60;99.90
18797;DHT22;9526;52.612;13.300;2023-02-18T07:56:23;7.60;99.90
18797;DHT22;9526;52.612;13.300;2023-02-18T07:58:48;7.60;99.90
18797;DHT22;9526;52.612;13.300;2023-02-18T08:01:14;7.60;99.90
18797;DHT22;9526;52.612;13.300;2023-02-18T08:03:38;7.60;99.90
18797;DHT22;9526;52.612;13.300;2023-02-18T08:06:03;7.70;99.90
18797;DHT22;9526;52.612;13.300;2023-02-18T08:08:30;7.70;99.90
18797;DHT22;9526;52.612;13.300;2023-02-18T08:10:59;7.70;99.90
18797;DHT22;9526;52.612;13.300;2023-02-18T08:13:37;7.90;99.90
18797;DHT22;9526;52.612;13.300;2023-02-18T08:16:01;7.70;99.90
18797;DHT22;9526;52.612;13.300;2023-02-18T08:18:25;7.60;99.90
18797;DHT22;9526;52.612;13.300;2023-02-18T08:20:49;7.60;99.90
18797;DHT22;9526;52.612;13.300;2023-02-18T08:23:14;7.60;99.90
18797;DHT22;9526;52.612;13.300;2023-02-18T08:25:39;7.60;99.90
18797;DHT22;9526;52.612;13.300;2023-02-18T08:28:04;7.60;99.90
18797;DHT22;9526;52.612;13.300;2023-02-18T08:30:28;7.60;99.90
18797;DHT22;9526;52.612;13.300;2023-02-18T08:32:52;7.60;99.90
18797;DHT22;9526;52.612;13.300;2023-02-18T08:35:15;7.60;99.90
18797;DHT22;9526;52.612;13.300;2023-02-18T08:37:39;7.60;99.90
18797;DHT22;9526;52.612;13.300;2023-02-18T08:40:15;7.60;99.90
18797;DHT22;9526;52.612;13.300;2023-02-18T08:42:41;7.60;99.90
18797;DHT22;9526;52.612;13.300;2023-02-18T08:45:05;7.60;99.90
18797;DHT22;9526;52.612;13.300;2023-02-18T08:47:30;7.50;99.90
18797;DHT22;9526;52.612;13.300;2023-02-18T08:50:13;7.60;99.90
18797;DHT22;9526;52.612;13.300;2023-02-18T08:52:39;7.50;99.90
18797;DHT22;9526;52.612;13.300;2023-02-18T08:55:03;7.60;99.90
18797;DHT22;9526;52.612;13.300;2023-02-18T08:57:27;7.60;99.90
18797;DHT22;9526;52.612;13.300;2023-02-18T08:59:52;7.60;99.90
18797;DHT22;9526;52.612;13.300;2023-02-18T09:02:16;7.60;99.90
18797;DHT22;9526;52.612;13.300;2023-02-18T09:04:40;7.50;99.90
18797;DHT22;9526;52.612;13.300;2023-02-18T09:07:04;7.50;99.90
18797;DHT22;9526;52.612;13.300;2023-02-18T09:09:28;7.50;99.90
18797;DHT22;9526;52.612;13.300;2023-02-18T09:11:51;7.60;99.90
18797;DHT22;9526;52.612;13.300;2023-02-18T09:14:15;7.50;99.90
18797;DHT22;9526;52.612;13.300;2023-02-18T09:16:41;7.60;99.90
18797;DHT22;9526;52.612;13.300;2023-02-18T09:19:05;7.50;99.90
18797;DHT22;9526;52.612;13.300;2023-02-18T09:21:29;7.40;99.90
18797;DHT22;9526;52.612;13.300;2023-02-18T09:23:52;7.40;99.90
18797;DHT22;9526;52.612;13.300;2023-02-18T09:26:18;7.40;99.90
18797;DHT22;9526;52.612;13.300;2023-02-18T09:28:44;7.30;99.90
18797;DHT22;9526;52.612;13.300;2023-02-18T09:31:09;7.40;99.90
18797;DHT22;9526;52.612;13.300;2023-02-18T09:33:37;7.30;99.90
18797;DHT22;9526;52.612;13.300;2023-02-18T09:36:02;7.40;99.90
18797;DHT22;9526;52.612;13.300;2023-02-18T09:38:26;7.50;99.90
18797;DHT22;9526;52.612;13.300;2023-02-18T09:40:53;7.40;99.90
18797;DHT22;9526;52.612;13.300;2023-02-18T09:43:23;7.50;99.90
18797;DHT22;9526;52.612;13.300;2023-02-18T09:45:52;7.50;99.90
18797;DHT22;9526;52.612;13.300;2023-02-18T09:48:16;7.60;99.90
18797;DHT22;9526;52.612;13.300;2023-02-18T09:50:42;7.50;99.90
18797;DHT22;9526;52.612;13.300;2023-02-18T09:53:11;7.50;99.90
18797;DHT22;9526;52.612;13.300;2023-02-18T09:55:37;7.60;99.90
18797;DHT22;9526;52.612;13.300;2023-02-18T09:58:03;7.70;99.90
18797;DHT22;9526;52.612;13.300;2023-02-18T10:00:31;7.70;99.90
18797;DHT22;9526;52.612;13.300;2023-02-18T10:03:00;7.60;99.90
18797;DHT22;9526;52.612;13.300;2023-02-18T10:05:28;7.50;99.90
18797;DHT22;9526;52.612;13.300;2023-02-18T10:07:57;7.60;99.90
18797;DHT22;9526;52.612;13.300;2023-02-18T10:10:32;7.60;99.90
18797;DHT22;9526;52.612;13.300;2023-02-18T10:12:59;7.60;99.90
18797;DHT22;9526;52.612;13.300;2023-02-18T10:15:27;7.50;99.90
18797;DHT22;9526;52.612;13.300;2023-02-18T10:17:52;7.60;99.90
18797;DHT22;9526;52.612;13.300;2023-02-18T10:20:23;7.70;99.90
18797;DHT22;9526;52.612;13.300;2023-02-18T10:22:53;7.70;99.90
18797;DHT22;9526;52.612;13.300;2023-02-18T10:25:20;7.80;99.90
18797;DHT22;9526;52.612;13.300;2023-02-18T10:27:47;7.80;99.90
18797;DHT22;9526;52.612;13.300;2023-02-18T10:30:23;7.80;99.90
18797;DHT22;9526;52.612;13.300;2023-02-18T10:32:53;7.90;99.90
18797;DHT22;9526;52.612;13.300;2023-02-18T10:35:23;7.90;99.90
18797;DHT22;9526;52.612;13.300;2023-02-18T10:38:01;7.90;99.90
18797;DHT22;9526;52.612;13.300;2023-02-18T10:40:37;7.80;99.90
18797;DHT22;9526;52.612;13.300;2023-02-18T10:43:16;7.80;99.90
18797;DHT22;9526;52.612;13.300;2023-02-18T10:45:48;7.80;99.90
18797;DHT22;9526;52.612;13.300;2023-02-18T10:48:38;7.80;99.90
18797;DHT22;9526;52.612;13.300;2023-02-18T10:51:13;7.70;99.90
18797;DHT22;9526;52.612;13.300;2023-02-18T10:53:41;7.70;99.90
18797;DHT22;9526;52.612;13.300;2023-02-18T10:56:07;7.80;99.90
18797;DHT22;9526;52.612;13.300;2023-02-18T10:58:32;7.80;99.90
18797;DHT22;9526;52.612;13.300;2023-02-18T11:00:58;7.80;99.90
18797;DHT22;9526;52.612;13.300;2023-02-18T11:03:35;7.70;99.90
18797;DHT22;9526;52.612;13.300;2023-02-18T11:06:02;7.70;99.90
18797;DHT22;9526;52.612;13.300;2023-02-18T11:08:28;7.60;99.90
18797;DHT22;9526;52.612;13.300;2023-02-18T11:11:08;7.70;99.90
18797;DHT22;9526;52.612;13.300;2023-02-18T11:13:40;7.70;99.90
18797;DHT22;9526;52.612;13.300;2023-02-18T11:16:05;7.70;99.90
18797;DHT22;9526;52.612;13.300;2023-02-18T11:18:36;7.80;99.90
18797;DHT22;9526;52.612;13.300;2023-02-18T11:21:03;7.80;99.90
18797;DHT22;9526;52.612;13.300;2023-02-18T11:23:28;7.80;99.90
18797;DHT22;9526;52.612;13.300;2023-02-18T11:25:59;7.70;99.90
18797;DHT22;9526;52.612;13.300;2023-02-18T11:28:30;7.80;99.90
18797;DHT22;9526;52.612;13.300;2023-02-18T11:31:02;7.80;99.90
18797;DHT22;9526;52.612;13.300;2023-02-18T11:33:32;7.70;99.90
18797;DHT22;9526;52.612;13.300;2023-02-18T11:35:58;7.80;99.90
18797;DHT22;9526;52.612;13.300;2023-02-18T11:38:40;7.80;99.90
18797;DHT22;9526;52.612;13.300;2023-02-18T11:41:10;7.80;99.90
18797;DHT22;9526;52.612;13.300;2023-02-18T11:43:36;7.80;99.90
18797;DHT22;9526;52.612;13.300;2023-02-18T11:46:12;7.70;99.90
18797;DHT22;9526;52.612;13.300;2023-02-18T11:48:37;7.70;99.90
18797;DHT22;9526;52.612;13.300;2023-02-18T11:51:02;7.70;99.90
18797;DHT22;9526;52.612;13.300;2023-02-18T11:53:30;7.70;99.90
18797;DHT22;9526;52.612;13.300;2023-02-18T11:55:56;7.80;99.90
18797;DHT22;9526;52.612;13.300;2023-02-18T11:58:23;7.90;99.90
18797;DHT22;9526;52.612;13.300;2023-02-18T12:00:49;7.80;99.90
18797;DHT22;9526;52.612;13.300;2023-02-18T12:03:26;7.90;99.90
18797;DHT22;9526;52.612;13.300;2023-02-18T12:05:59;7.80;99.90
18797;DHT22;9526;52.612;13.300;2023-02-18T12:08:27;7.70;99.90
18797;DHT22;9526;52.612;13.300;2023-02-18T12:10:55;7.80;99.90
18797;DHT22;9526;52.612;13.300;2023-02-18T12:13:26;7.90;99.90
18797;DHT22;9526;52.612;13.300;2023-02-18T12:16:00;8.00;99.90
18797;DHT22;9526;52.612;13.300;2023-02-18T12:18:56;8.00;99.90
18797;DHT22;9526;52.612;13.300;2023-02-18T12:21:40;8.10;99.90
18797;DHT22;9526;52.612;13.300;2023-02-18T12:24:23;8.10;99.90
18797;DHT22;9526;52.612;13.300;2023-02-18T12:27:03;8.20;99.90
18797;DHT22;9526;52.612;13.300;2023-02-18T12:29:44;8.30;99.90
18797;DHT22;9526;52.612;13.300;2023-02-18T12:32:26;8.20;99.90
18797;DHT22;9526;52.612;13.300;2023-02-18T12:35:12;8.30;99.90
18797;DHT22;9526;52.612;13.300;2023-02-18T12:38:10;8.30;99.90
18797;DHT22;9526;52.612;13.300;2023-02-18T12:41:05;8.50;99.90
18797;DHT22;9526;52.612;13.300;2023-02-18T12:43:46;8.50;99.90
18797;DHT22;9526;52.612;13.300;2023-02-18T12:46:36;8.70;99.90
18797;DHT22;9526;52.612;13.300;2023-02-18T12:49:19;8.80;99.90
18797;DHT22;9526;52.612;13.300;2023-02-18T12:51:58;8.90;99.90
18797;DHT22;9526;52.612;13.300;2023-02-18T12:54:36;9.10;99.90
18797;DHT22;9526;52.612;13.300;2023-02-18T12:57:27;9.20;99.90
18797;DHT22;9526;52.612;13.300;2023-02-18T13:00:30;9.30;99.90
18797;DHT22;9526;52.612;13.300;2023-02-18T13:03:46;9.40;99.90
18797;DHT22;9526;52.612;13.300;2023-02-18T13:09:33;9.60;99.90
18797;DHT22;9526;52.612;13.300;2023-02-18T13:12:06;9.70;99.90
18797;DHT22;9526;52.612;13.300;2023-02-18T13:14:41;9.80;99.90
18797;DHT22;9526;52.612;13.300;2023-02-18T13:17:10;9.90;99.90
18797;DHT22;9526;52.612;13.300;2023-02-18T13:19:48;10.00;99.90
18797;DHT22;9526;52.612;13.300;2023-02-18T13:22:15;10.00;99.90
18797;DHT22;9526;52.612;13.300;2023-02-18T13:24:43;10.20;99.90
18797;DHT22;9526;52.612;13.300;2023-02-18T13:27:28;10.20;99.90
18797;DHT22;9526;52.612;13.300;2023-02-18T13:30:08;10.30;99.90
18797;DHT22;9526;52.612;13.300;2023-02-18T13:32:46;10.30;99.90
18797;DHT22;9526;52.612;13.300;2023-02-18T13:35:22;10.40;99.90
18797;DHT22;9526;52.612;13.300;2023-02-18T13:37:55;10.50;99.90
18797;DHT22;9526;52.612;13.300;2023-02-18T13:40:41;10.50;99.90
18797;DHT22;9526;52.612;13.300;2023-02-18T13:43:20;10.50;99.90
18797;DHT22;9526;52.612;13.300;2023-02-18T13:46:03;10.60;99.90
18797;DHT22;9526;52.612;13.300;2023-02-18T13:48:34;10.60;99.90
18797;DHT22;9526;52.612;13.300;2023-02-18T13:51:06;10.60;99.90
18797;DHT22;9526;52.612;13.300;2023-02-18T13:53:31;10.70;99.90
18797;DHT22;9526;52.612;13.300;2023-02-18T13:56:01;10.70;99.90
18797;DHT22;9526;52.612;13.300;2023-02-18T13:58:31;10.70;99.90
18797;DHT22;9526;52.612;13.300;2023-02-18T14:01:02;10.70;99.90
18797;DHT22;9526;52.612;13.300;2023-02-18T14:03:34;10.70;99.90
18797;DHT22;9526;52.612;13.300;2023-02-18T14:06:14;10.70;99.90
18797;DHT22;9526;52.612;13.300;2023-02-18T14:08:46;10.70;99.90
18797;DHT22;9526;52.612;13.300;2023-02-18T14:11:31;10.70;99.90
18797;DHT22;9526;52.612;13.300;2023-02-18T14:14:30;10.70;99.90
18797;DHT22;9526;52.612;13.300;2023-02-18T14:23:55;10.80;99.90
18797;DHT22;9526;52.612;13.300;2023-02-18T14:26:27;10.80;99.90
18797;DHT22;9526;52.612;13.300;2023-02-18T14:29:00;10.80;99.90
18797;DHT22;9526;52.612;13.300;2023-02-18T14:31:32;10.80;99.90
18797;DHT22;9526;52.612;13.300;2023-02-18T14:37:11;10.80;99.90
18797;DHT22;9526;52.612;13.300;2023-02-18T14:40:07;10.80;99.90
18797;DHT22;9526;52.612;13.300;2023-02-18T14:42:48;10.90;99.90
18797;DHT22;9526;52.612;13.300;2023-02-18T14:45:25;10.90;99.90
18797;DHT22;9526;52.612;13.300;2023-02-18T14:48:13;10.90;99.90
18797;DHT22;9526;52.612;13.300;2023-02-18T14:50:48;10.90;99.90
18797;DHT22;9526;52.612;13.300;2023-02-18T14:53:17;10.90;99.90
18797;DHT22;9526;52.612;13.300;2023-02-18T14:55:46;10.90;99.90
18797;DHT22;9526;52.612;13.300;2023-02-18T14:58:16;10.90;99.90
18797;DHT22;9526;52.612;13.300;2023-02-18T15:00:50;10.90;99.90
18797;DHT22;9526;52.612;13.300;2023-02-18T15:03:16;10.80;99.90
18797;DHT22;9526;52.612;13.300;2023-02-18T15:05:42;10.80;99.90
18797;DHT22;9526;52.612;13.300;2023-02-18T15:08:12;10.80;99.90
18797;DHT22;9526;52.612;13.300;2023-02-18T15:10:40;10.80;99.90
18797;DHT22;9526;52.612;13.300;2023-02-18T15:13:13;10.80;99.90
18797;DHT22;9526;52.612;13.300;2023-02-18T15:15:42;10.80;99.90
18797;DHT22;9526;52.612;13.300;2023-02-18T15:18:15;10.80;99.90
18797;DHT22;9526;52.612;13.300;2023-02-18T15:20:44;10.80;99.90
18797;DHT22;9526;52.612;13.300;2023-02-18T15:23:10;10.70;99.90
18797;DHT22;9526;52.612;13.300;2023-02-18T15:25:38;10.80;99.90
18797;DHT22;9526;52.612;13.300;2023-02-18T15:28:02;10.80;99.90
18797;DHT22;9526;52.612;13.300;2023-02-18T15:30:29;10.80;99.90
18797;DHT22;9526;52.612;13.300;2023-02-18T15:32:54;10.70;99.90
18797;DHT22;9526;52.612;13.300;2023-02-18T15:35:21;10.60;99.90
18797;DHT22;9526;52.612;13.300;2023-02-18T15:37:53;10.60;99.90
18797;DHT22;9526;52.612;13.300;2023-02-18T15:40:17;10.50;99.90
18797;DHT22;9526;52.612;13.300;2023-02-18T15:42:41;10.40;99.90
18797;DHT22;9526;52.612;13.300;2023-02-18T15:45:16;10.40;99.90
18797;DHT22;9526;52.612;13.300;2023-02-18T15:47:44;10.40;99.90
18797;DHT22;9526;52.612;13.300;2023-02-18T15:50:16;10.30;99.90
18797;DHT22;9526;52.612;13.300;2023-02-18T15:52:40;10.40;99.90
18797;DHT22;9526;52.612;13.300;2023-02-18T15:55:10;10.40;99.90
18797;DHT22;9526;52.612;13.300;2023-02-18T15:57:38;10.40;99.90
18797;DHT22;9526;52.612;13.300;2023-02-18T16:00:05;10.40;99.90
18797;DHT22;9526;52.612;13.300;2023-02-18T16:02:35;10.40;99.90
18797;DHT22;9526;52.612;13.300;2023-02-18T16:05:01;10.30;99.90
18797;DHT22;9526;52.612;13.300;2023-02-18T16:07:27;10.20;99.90
18797;DHT22;9526;52.612;13.300;2023-02-18T16:10:15;10.10;99.90